CheckWX is a tool to help pilots better visualize weather data.  It is not intended as a substitute for an official pre-flight weather briefing.

01:07:30 UTC

CYXC METAR
Cranbrook Airport
Cranbrook, Canada
Current

1 hour ago

CYXC 240000Z 12010KT 25SM FEW040 SCT085 BKN210 M04/M15 A3009 RMK SC2AC2CI2 SH DIST SW-W SLP241
Observed
Feb-24 @ 00:00 UTC
Wind
  • 120° at 10 KTS
Visibility
25 SM
Flight Rules
VFR
Cloud Levels
  • Few at 4,000' AGL
  • Scattered at 8,500' AGL
  • Broken at 21,000' AGL
Temperature
-4°C / 25°F
Dewpoint
-15°C / 5°F
Humidity
42%
Altimeter
30.09" Hg
Pressure
1024.1 hPa
Previous

2 hours ago

CYXC 232300Z 12010KT 090V150 25SM FEW035 SCT065 SCT090 BKN200 M03/M15 A3008 RMK SC1SC2AC1CI2 SH DIST SW-W SLP235
Observed
Feb-23 @ 23:00 UTC
Wind
  • 120° at 10 KTS
Visibility
25 SM
Flight Rules
VFR
Cloud Levels
  • Few at 3,500' AGL
  • Scattered at 6,500' AGL
  • Scattered at 9,000' AGL
  • Broken at 20,000' AGL
Temperature
-3°C / 27°F
Dewpoint
-15°C / 5°F
Humidity
39%
Altimeter
30.08" Hg
Pressure
1023.5 hPa
Previous

3 hours ago

CYXC 232200Z 13010G17KT 25SM FEW035 SCT078 BKN200 M03/M15 A3007 RMK SC1AC2CI2 SLP232
Observed
Feb-23 @ 22:00 UTC
Wind
  • 130° at 10 KTS
  • Gusting to 17 KTS
Visibility
25 SM
Flight Rules
VFR
Cloud Levels
  • Few at 3,500' AGL
  • Scattered at 7,800' AGL
  • Broken at 20,000' AGL
Temperature
-3°C / 27°F
Dewpoint
-15°C / 5°F
Humidity
39%
Altimeter
30.07" Hg
Pressure
1023.2 hPa